Time;durP1;ratioP1;P1;durP2;ratioP2;P2;SDS_P1;SDS_P2;PMS_P1;PMS_P2;Temp;Humidity;BMP_temperature;BMP_pressure;BME280_temperature;BME280_humidity;BME280_pressure;Samples;Min_cycle;Max_cycle;Signal;HPM_P1;HPM_P2
2022/01/25 00:08:23;;;;;;;1999.90;999.90;;;4.20;99.90;;;;;;5012481;28;20400;-74
2022/01/25 00:28:25;;;;;;;1999.90;999.90;;;4.20;99.90;;;;;;5012079;28;20172;-74
2022/01/25 00:33:26;;;;;;;1999.90;999.90;;;4.20;99.90;;;;;;5012267;28;20407;-74
2022/01/25 00:35:52;;;;;;;1999.90;999.90;;;4.20;99.90;;;;;;5011751;28;20192;-72
2022/01/25 00:38:18;;;;;;;1999.90;999.90;;;4.10;99.90;;;;;;5012100;28;20196;-74
2022/01/25 00:40:44;;;;;;;1999.90;999.90;;;4.20;99.90;;;;;;5011918;28;20170;-74
2022/01/25 00:43:09;;;;;;;1999.90;999.90;;;4.10;99.90;;;;;;5011979;28;20434;-74
2022/01/25 00:45:35;;;;;;;1999.90;999.90;;;4.20;99.90;;;;;;5011696;28;20260;-75
2022/01/25 00:48:03;;;;;;;1999.90;999.90;;;4.30;99.90;;;;;;5011900;28;20246;-74
2022/01/25 00:50:37;;;;;;;1999.90;999.90;;;4.40;99.90;;;;;;5011984;28;20177;-74
2022/01/25 00:55:30;;;;;;;1999.90;999.90;;;4.50;99.90;;;;;;5011562;28;20400;-72
2022/01/25 00:57:56;;;;;;;1999.90;999.90;;;4.60;99.90;;;;;;5011821;28;20546;-74
2022/01/25 01:00:22;;;;;;;1999.90;999.90;;;4.60;99.90;;;;;;5011740;28;20414;-73
2022/01/25 01:02:47;;;;;;;1999.90;999.90;;;4.60;99.90;;;;;;5011657;28;20567;-73
2022/01/25 01:05:13;;;;;;;1999.90;999.90;;;4.50;99.90;;;;;;5011694;28;20404;-74
2022/01/25 01:07:41;;;;;;;1999.90;999.90;;;4.50;99.90;;;;;;5012122;28;20248;-73
2022/01/25 01:10:07;;;;;;;1999.90;999.90;;;4.40;99.90;;;;;;5012158;28;20248;-73
2022/01/25 01:16:17;;;;;;;1999.90;999.90;;;4.40;99.90;;;;;;5015701;28;20175;-74
2022/01/25 01:29:20;;;;;;;1999.90;999.90;;;4.40;99.90;;;;;;5000321;28;20399;-73
2022/01/25 01:44:19;;;;;;;1999.90;999.90;;;4.20;99.90;;;;;;5014878;28;20764;-73
2022/01/25 01:47:01;;;;;;;1999.90;999.90;;;4.20;99.90;;;;;;5014765;28;20286;-73
2022/01/25 01:49:29;;;;;;;1999.90;999.90;;;4.20;99.90;;;;;;5014907;28;20912;-73
2022/01/25 01:51:54;;;;;;;1999.90;999.90;;;4.20;99.90;;;;;;5014799;28;20463;-74
2022/01/25 01:54:20;;;;;;;1999.90;999.90;;;4.20;99.90;;;;;;5014285;28;20463;-73
2022/01/25 01:56:45;;;;;;;1999.90;999.90;;;4.20;99.90;;;;;;4997116;28;20180;-73
2022/01/25 01:59:14;;;;;;;1999.90;999.90;;;4.20;99.90;;;;;;4997057;28;20174;-73
2022/01/25 02:01:42;;;;;;;1999.90;999.90;;;4.10;99.90;;;;;;5014403;28;20271;-73
2022/01/25 02:04:10;;;;;;;1999.90;999.90;;;4.10;99.90;;;;;;5014051;28;20438;-73
2022/01/25 02:06:36;;;;;;;1999.90;999.90;;;4.20;99.90;;;;;;5014340;28;20545;-73
2022/01/25 02:09:05;;;;;;;1999.90;999.90;;;4.20;99.90;;;;;;5014404;28;20785;-73
2022/01/25 02:11:31;;;;;;;1999.90;999.90;;;4.20;99.90;;;;;;5013944;28;20208;-73
2022/01/25 02:14:03;;;;;;;1999.90;999.90;;;4.20;99.90;;;;;;5014220;28;20423;-73
2022/01/25 02:24:32;;;;;;;1999.90;999.90;;;4.40;99.90;;;;;;5013842;28;20494;-73
2022/01/25 02:26:58;;;;;;;1999.90;999.90;;;4.40;99.90;;;;;;5013898;28;20192;-73
2022/01/25 02:29:25;;;;;;;1999.90;999.90;;;4.40;99.90;;;;;;5013945;28;20407;-73
2022/01/25 02:31:52;;;;;;;1999.90;999.90;;;4.30;99.90;;;;;;5013884;28;20786;-73
2022/01/25 02:34:18;;;;;;;1999.90;999.90;;;4.20;99.90;;;;;;5013451;28;20404;-74
2022/01/25 02:36:43;;;;;;;1999.90;999.90;;;4.20;99.90;;;;;;5013870;28;20199;-73
2022/01/25 02:39:09;;;;;;;1999.90;999.90;;;4.30;99.90;;;;;;5013742;28;20637;-74
2022/01/25 02:41:35;;;;;;;1999.90;999.90;;;4.30;99.90;;;;;;5013656;28;20247;-74
2022/01/25 02:44:04;;;;;;;1999.90;999.90;;;4.20;99.90;;;;;;5013501;28;20177;-72
2022/01/25 02:49:02;;;;;;;1999.90;999.90;;;4.10;99.90;;;;;;5013586;28;20498;-74
2022/01/25 02:51:31;;;;;;;1999.90;999.90;;;4.10;99.90;;;;;;5013442;28;20271;-73
2022/01/25 02:53:57;;;;;;;1999.90;999.90;;;4.20;99.90;;;;;;5013349;28;20411;-73
2022/01/25 02:56:24;;;;;;;1999.90;999.90;;;4.10;99.90;;;;;;5013227;28;20415;-74
2022/01/25 02:58:50;;;;;;;1999.90;999.90;;;4.10;99.90;;;;;;5013399;28;20778;-73
2022/01/25 03:01:17;;;;;;;1999.90;999.90;;;4.10;99.90;;;;;;5013247;28;20200;-73
2022/01/25 03:03:43;;;;;;;1999.90;999.90;;;4.10;99.90;;;;;;5013296;28;20235;-73
2022/01/25 03:06:09;;;;;;;1999.90;999.90;;;4.10;99.90;;;;;;5012956;28;20201;-73
2022/01/25 03:08:35;;;;;;;1999.90;999.90;;;4.00;99.90;;;;;;4995766;28;20172;-73
2022/01/25 03:11:01;;;;;;;1999.90;999.90;;;4.00;99.90;;;;;;5013032;28;20213;-73
2022/01/25 03:13:33;;;;;;;1999.90;999.90;;;4.00;99.90;;;;;;5013150;28;20248;-73
2022/01/25 03:16:06;;;;;;;1999.90;999.90;;;3.90;99.90;;;;;;5012808;28;20259;-73
2022/01/25 03:21:03;;;;;;;1999.90;999.90;;;3.80;99.90;;;;;;5012968;28;20192;-73
2022/01/25 03:23:30;;;;;;;1999.90;999.90;;;3.80;99.90;;;;;;5012925;28;20786;-73
2022/01/25 03:25:56;;;;;;;1999.90;999.90;;;3.80;99.90;;;;;;5012496;28;20260;-73
2022/01/25 03:28:22;;;;;;;1999.90;999.90;;;3.90;99.90;;;;;;5012812;28;20261;-73
2022/01/25 03:30:48;;;;;;;1999.90;999.90;;;3.90;99.90;;;;;;5012760;28;20891;-73
2022/01/25 03:33:15;;;;;;;1999.90;999.90;;;4.00;99.90;;;;;;5012201;28;20259;-73
2022/01/25 03:35:41;;;;;;;1999.90;999.90;;;4.00;99.90;;;;;;5011942;28;20404;-73
2022/01/25 03:38:07;;;;;;;1999.90;999.90;;;3.90;99.90;;;;;;5012708;28;20173;-74
2022/01/25 03:40:33;;;;;;;1999.90;999.90;;;3.80;99.90;;;;;;5012512;28;20175;-72
2022/01/25 03:42:59;;;;;;;1999.90;999.90;;;3.80;99.90;;;;;;5012613;28;20168;-72
2022/01/25 03:45:32;;;;;;;1999.90;999.90;;;3.70;99.90;;;;;;5012315;28;20439;-72
2022/01/25 03:49:48;;;;;;;1999.90;999.90;;;3.70;99.90;;;;;;5012521;28;20222;-72
2022/01/25 03:50:47;;;;;;;1999.90;999.90;;;3.80;99.90;;;;;;5012273;28;20545;-72
2022/01/25 03:53:14;;;;;;;1999.90;999.90;;;3.90;99.90;;;;;;5012416;28;20580;-72
2022/01/25 03:55:40;;;;;;;1999.90;999.90;;;3.80;99.90;;;;;;5012171;28;20172;-72
2022/01/25 03:58:06;;;;;;;1999.90;999.90;;;3.80;99.90;;;;;;5012581;28;20207;-72
2022/01/25 04:00:34;;;;;;;1999.90;999.90;;;3.70;99.90;;;;;;5012170;28;20176;-72
2022/01/25 04:03:12;;;;;;;1999.90;999.90;;;3.60;99.90;;;;;;4994733;28;20185;-72
2022/01/25 04:08:04;;;;;;;1999.90;999.90;;;3.70;99.90;;;;;;5012182;28;20207;-72
2022/01/25 04:10:30;;;;;;;1999.90;999.90;;;3.60;99.90;;;;;;5012155;28;20260;-72
2022/01/25 04:12:56;;;;;;;1999.90;999.90;;;3.40;99.90;;;;;;5100887;23;20321;-73
2022/01/25 04:15:21;;;;;;;1999.90;999.90;;;3.40;99.90;;;;;;5071613;28;20404;-73
2022/01/25 04:17:53;;;;;;;1999.90;999.90;;;3.50;99.90;;;;;;5071892;28;20534;-73
2022/01/25 04:20:26;;;;;;;1999.90;999.90;;;3.40;99.90;;;;;;5071985;28;20169;-73
2022/01/25 04:25:37;;;;;;;1999.90;999.90;;;3.40;99.90;;;;;;5071607;28;20652;-73
2022/01/25 04:28:03;;;;;;;1999.90;999.90;;;3.30;99.90;;;;;;5071716;28;20237;-74
2022/01/25 04:30:29;;;;;;;1999.90;999.90;;;3.30;99.90;;;;;;5071738;28;20412;-73
2022/01/25 04:33:16;;;;;;;1999.90;999.90;;;3.40;99.90;;;;;;5071649;28;20182;-73
2022/01/25 04:35:55;;;;;;;1999.90;999.90;;;3.40;99.90;;;;;;5071403;28;20709;-73
2022/01/25 04:49:23;;;;;;;1999.90;999.90;;;3.00;99.90;;;;;;5075557;28;20225;-73
2022/01/25 04:51:58;;;;;;;1999.90;999.90;;;3.00;99.90;;;;;;5075413;28;20183;-73
2022/01/25 05:02:06;;;;;;;1999.90;999.90;;;3.10;99.90;;;;;;5075411;28;20252;-74
2022/01/25 05:04:37;;;;;;;1999.90;999.90;;;3.00;99.90;;;;;;5074972;28;20182;-74
2022/01/25 05:07:16;;;;;;;1999.90;999.90;;;3.00;99.90;;;;;;5075029;28;20199;-74
2022/01/25 05:09:43;;;;;;;1999.90;999.90;;;3.00;99.90;;;;;;5075118;28;20571;-74
2022/01/25 05:12:11;;;;;;;1999.90;999.90;;;2.90;99.90;;;;;;5074878;28;20198;-74
2022/01/25 05:14:47;;;;;;;1999.90;999.90;;;2.80;99.90;;;;;;5074682;28;20183;-73
2022/01/25 05:17:18;;;;;;;1999.90;999.90;;;2.80;99.90;;;;;;5074962;28;20571;-73
2022/01/25 05:22:20;;;;;;;1999.90;999.90;;;2.80;99.90;;;;;;5074954;28;20191;-74
2022/01/25 05:24:48;;;;;;;1999.90;999.90;;;2.80;99.90;;;;;;5074584;28;20169;-74
2022/01/25 05:27:15;;;;;;;1999.90;999.90;;;2.80;99.90;;;;;;5074654;28;20238;-74
2022/01/25 05:29:41;;;;;;;1999.90;999.90;;;2.80;99.90;;;;;;5074690;28;20163;-74
2022/01/25 05:32:08;;;;;;;1999.90;999.90;;;2.70;99.90;;;;;;5074702;28;20191;-74
2022/01/25 05:34:33;;;;;;;1999.90;999.90;;;2.70;99.90;;;;;;5074252;28;20171;-74
2022/01/25 05:36:59;;;;;;;1999.90;999.90;;;2.70;99.90;;;;;;5074601;28;20596;-74
2022/01/25 05:39:32;;;;;;;1999.90;999.90;;;2.70;99.90;;;;;;5074548;28;20167;-74
2022/01/25 05:42:17;;;;;;;1999.90;999.90;;;2.70;99.90;;;;;;5074442;28;20191;-74
2022/01/25 05:45:38;;;;;;;1999.90;999.90;;;2.70;99.90;;;;;;5074149;28;20167;-74
2022/01/25 05:47:31;;;;;;;1999.90;999.90;;;2.80;99.90;;;;;;5063341;28;20216;-74
2022/01/25 05:49:59;;;;;;;1999.90;999.90;;;2.90;99.90;;;;;;5074673;28;20692;-74
2022/01/25 05:52:26;;;;;;;1999.90;999.90;;;3.00;99.90;;;;;;5074151;28;20563;-74
2022/01/25 05:54:52;;;;;;;1999.90;999.90;;;2.90;99.90;;;;;;5074066;28;20160;-74
2022/01/25 05:57:17;;;;;;;1999.90;999.90;;;3.00;99.90;;;;;;5073840;28;20256;-74
2022/01/25 05:59:43;;;;;;;1999.90;999.90;;;3.00;99.90;;;;;;5074109;28;20217;-74
2022/01/25 06:02:09;;;;;;;1999.90;999.90;;;3.00;99.90;;;;;;5074114;28;20270;-74
2022/01/25 06:04:35;;;;;;;1999.90;999.90;;;3.00;99.90;;;;;;5073863;28;20248;-74
2022/01/25 06:07:01;;;;;;;1999.90;999.90;;;3.00;99.90;;;;;;5073992;28;20191;-74
2022/01/25 06:09:27;;;;;;;1999.90;999.90;;;3.10;99.90;;;;;;5074085;28;20244;-74
2022/01/25 06:11:54;;;;;;;1999.90;999.90;;;3.00;99.90;;;;;;5073655;28;20473;-74
2022/01/25 06:14:20;;;;;;;1999.90;999.90;;;3.00;99.90;;;;;;5073642;28;20220;-74
2022/01/25 06:16:45;;;;;;;1999.90;999.90;;;3.00;99.90;;;;;;5073890;28;20175;-74
2022/01/25 06:19:11;;;;;;;1999.90;999.90;;;2.90;99.90;;;;;;5073828;28;20409;-74
2022/01/25 06:21:36;;;;;;;1999.90;999.90;;;3.00;99.90;;;;;;5073660;28;20193;-74
2022/01/25 06:24:02;;;;;;;1999.90;999.90;;;3.00;99.90;;;;;;5073495;28;20386;-74
2022/01/25 06:26:28;;;;;;;1999.90;999.90;;;3.00;99.90;;;;;;5073606;28;20656;-74
2022/01/25 06:28:53;;;;;;;1999.90;999.90;;;3.00;99.90;;;;;;5073640;28;20773;-74
2022/01/25 06:31:19;;;;;;;1999.90;999.90;;;3.00;99.90;;;;;;5073537;28;20187;-74
2022/01/25 06:33:46;;;;;;;1999.90;999.90;;;3.00;99.90;;;;;;5073496;28;20538;-74
2022/01/25 06:36:12;;;;;;;1999.90;999.90;;;3.00;99.90;;;;;;5073221;28;20170;-74
2022/01/25 06:38:38;;;;;;;1999.90;999.90;;;3.10;99.90;;;;;;5073356;28;20174;-75
2022/01/25 06:41:04;;;;;;;1999.90;999.90;;;3.10;99.90;;;;;;5073317;28;20640;-76
2022/01/25 06:43:30;;;;;;;1999.90;999.90;;;3.20;99.90;;;;;;5073365;28;20169;-76
2022/01/25 06:46:00;;;;;;;1999.90;999.90;;;3.20;99.90;;;;;;5073000;28;20488;-76
2022/01/25 06:48:26;;;;;;;1999.90;999.90;;;3.20;99.90;;;;;;5073372;28;20183;-76
2022/01/25 06:50:52;;;;;;;1999.90;999.90;;;3.20;99.90;;;;;;5073056;28;20629;-76
2022/01/25 06:53:18;;;;;;;1999.90;999.90;;;3.20;99.90;;;;;;5073065;28;20433;-76
2022/01/25 06:55:44;;;;;;;1999.90;999.90;;;3.20;99.90;;;;;;5072720;28;20202;-76
2022/01/25 06:58:10;;;;;;;1999.90;999.90;;;3.30;99.90;;;;;;5073025;28;20193;-76
2022/01/25 07:00:36;;;;;;;1999.90;999.90;;;3.30;99.90;;;;;;5073042;28;20652;-74
2022/01/25 07:03:02;;;;;;;1999.90;999.90;;;3.40;99.90;;;;;;5054930;28;20192;-76
2022/01/25 07:05:28;;;;;;;1999.90;999.90;;;3.40;99.90;;;;;;5072529;28;20201;-75
2022/01/25 07:07:54;;;;;;;1999.90;999.90;;;3.40;99.90;;;;;;5072711;28;20195;-75
2022/01/25 07:10:20;;;;;;;1999.90;999.90;;;3.40;99.90;;;;;;5071973;28;20167;-74
2022/01/25 07:12:46;;;;;;;1999.90;999.90;;;3.40;99.90;;;;;;5072519;28;20209;-74
2022/01/25 07:15:13;;;;;;;1999.90;999.90;;;3.40;99.90;;;;;;5072482;28;20163;-74
2022/01/25 07:17:39;;;;;;;1999.90;999.90;;;3.50;99.90;;;;;;5072670;28;20167;-73
2022/01/25 07:20:06;;;;;;;1999.90;999.90;;;3.40;99.90;;;;;;5072547;28;20206;-74
2022/01/25 07:22:33;;;;;;;1999.90;999.90;;;3.50;99.90;;;;;;5054566;28;20571;-74
2022/01/25 07:24:59;;;;;;;1999.90;999.90;;;3.30;99.90;;;;;;5072177;28;20186;-74
2022/01/25 07:27:25;;;;;;;1999.90;999.90;;;3.30;99.90;;;;;;5072369;28;20199;-74
2022/01/25 07:29:51;;;;;;;1999.90;999.90;;;3.30;99.90;;;;;;5072399;28;20412;-74
2022/01/25 07:32:16;;;;;;;1999.90;999.90;;;3.20;99.90;;;;;;5072433;28;20232;-74
2022/01/25 07:34:42;;;;;;;1999.90;999.90;;;3.20;99.90;;;;;;5072070;28;20312;-74
2022/01/25 07:37:08;;;;;;;1999.90;999.90;;;3.10;99.90;;;;;;5072407;28;20503;-74
2022/01/25 07:39:33;;;;;;;1999.90;999.90;;;3.10;99.90;;;;;;5072309;28;20228;-74
2022/01/25 07:41:59;;;;;;;1999.90;999.90;;;3.00;99.90;;;;;;5072138;28;20187;-74
2022/01/25 07:44:30;;;;;;;1999.90;999.90;;;3.10;99.90;;;;;;5071963;28;20167;-74
2022/01/25 07:47:01;;;;;;;1999.90;999.90;;;3.20;99.90;;;;;;5072120;28;20961;-74
2022/01/25 07:49:30;;;;;;;1999.90;999.90;;;3.30;99.90;;;;;;5072198;28;20276;-74
2022/01/25 07:51:57;;;;;;;1999.90;999.90;;;3.30;99.90;;;;;;5071981;28;20182;-74
2022/01/25 07:54:23;;;;;;;1999.90;999.90;;;3.40;99.90;;;;;;5071879;28;20178;-74
2022/01/25 07:56:48;;;;;;;1999.90;999.90;;;3.40;99.90;;;;;;5072165;28;20708;-75
2022/01/25 07:59:15;;;;;;;1999.90;999.90;;;3.30;99.90;;;;;;5072106;28;20409;-75
2022/01/25 08:01:41;;;;;;;1999.90;999.90;;;3.30;99.90;;;;;;5054073;28;20191;-75
2022/01/25 08:04:10;;;;;;;1999.90;999.90;;;3.10;99.90;;;;;;5071698;28;20182;-76
2022/01/25 08:06:37;;;;;;;1999.90;999.90;;;3.20;99.90;;;;;;5071907;28;20702;-76
2022/01/25 08:09:05;;;;;;;1999.90;999.90;;;3.10;99.90;;;;;;5072008;28;20531;-76
2022/01/25 08:11:31;;;;;;;1999.90;999.90;;;3.10;99.90;;;;;;5071814;28;20199;-76
2022/01/25 08:14:11;;;;;;;1999.90;999.90;;;3.00;99.90;;;;;;5071887;28;20171;-76
2022/01/25 08:16:37;;;;;;;1999.90;999.90;;;3.00;99.90;;;;;;5071974;28;20409;-76
2022/01/25 08:19:03;;;;;;;1999.90;999.90;;;3.00;99.90;;;;;;5071733;28;20199;-76
2022/01/25 08:21:29;;;;;;;1999.90;999.90;;;3.10;99.90;;;;;;5073659;28;20546;-76
2022/01/25 08:23:54;;;;;;;1999.90;999.90;;;3.10;99.90;;;;;;5076007;28;20163;-76
2022/01/25 08:26:20;;;;;;;1999.90;999.90;;;3.10;99.90;;;;;;5075751;28;20284;-76
2022/01/25 08:28:45;;;;;;;1999.90;999.90;;;3.10;99.90;;;;;;5075880;28;20578;-76
2022/01/25 08:31:11;;;;;;;1999.90;999.90;;;3.00;99.90;;;;;;5075848;28;20214;-76
2022/01/25 08:33:39;;;;;;;1999.90;999.90;;;3.00;99.90;;;;;;5075728;28;20164;-76
2022/01/25 08:36:05;;;;;;;1999.90;999.90;;;2.90;99.90;;;;;;5075443;28;20423;-76
2022/01/25 08:38:31;;;;;;;1999.90;999.90;;;2.90;99.90;;;;;;5075764;28;20632;-76
2022/01/25 08:40:57;;;;;;;1999.90;999.90;;;3.00;99.90;;;;;;5075620;28;20165;-76
2022/01/25 08:43:24;;;;;;;1999.90;999.90;;;3.10;99.90;;;;;;5075519;28;20167;-76
2022/01/25 08:45:49;;;;;;;1999.90;999.90;;;3.10;99.90;;;;;;5074984;28;20166;-76
2022/01/25 08:48:15;;;;;;;1999.90;999.90;;;3.20;99.90;;;;;;5075448;28;20695;-75
2022/01/25 08:50:41;;;;;;;1999.90;999.90;;;3.30;99.90;;;;;;5075516;28;20171;-76
2022/01/25 08:53:07;;;;;;;1999.90;999.90;;;3.30;99.90;;;;;;5075334;28;20239;-76
2022/01/25 08:55:33;;;;;;;1999.90;999.90;;;3.30;99.90;;;;;;5075225;28;20220;-76
2022/01/25 08:57:59;;;;;;;1999.90;999.90;;;3.30;99.90;;;;;;5075343;28;20254;-76
2022/01/25 09:00:24;;;;;;;1999.90;999.90;;;3.30;99.90;;;;;;5075324;28;20163;-76
2022/01/25 09:02:50;;;;;;;1999.90;999.90;;;3.10;99.90;;;;;;5074991;28;20187;-76
2022/01/25 09:05:16;;;;;;;1999.90;999.90;;;3.10;99.90;;;;;;5074937;28;20167;-76
2022/01/25 09:07:41;;;;;;;1999.90;999.90;;;3.00;99.90;;;;;;5075130;28;20221;-75
2022/01/25 09:10:08;;;;;;;1999.90;999.90;;;3.00;99.90;;;;;;5074994;28;20419;-75
2022/01/25 09:12:34;;;;;;;1999.90;999.90;;;3.00;99.90;;;;;;5074826;28;20869;-75
2022/01/25 09:15:00;;;;;;;1999.90;999.90;;;2.90;99.90;;;;;;5074704;28;20171;-75
2022/01/25 09:17:26;;;;;;;1999.90;999.90;;;3.00;99.90;;;;;;5074902;28;20894;-75
2022/01/25 09:19:51;;;;;;;1999.90;999.90;;;2.90;99.90;;;;;;5074965;28;20178;-76
2022/01/25 09:22:19;;;;;;;1999.90;999.90;;;2.90;99.90;;;;;;5074990;28;20567;-76
2022/01/25 09:24:45;;;;;;;1999.90;999.90;;;2.90;99.90;;;;;;5056668;28;20558;-76
2022/01/25 09:27:10;;;;;;;1999.90;999.90;;;2.90;99.90;;;;;;5074715;28;20294;-76
2022/01/25 09:29:36;;;;;;;1999.90;999.90;;;2.90;99.90;;;;;;5074777;28;20243;-76
2022/01/25 09:32:02;;;;;;;1999.90;999.90;;;2.90;99.90;;;;;;5074196;28;20252;-76
2022/01/25 09:34:28;;;;;;;1999.90;999.90;;;2.90;99.90;;;;;;5073869;28;20699;-76
2022/01/25 09:36:54;;;;;;;1999.90;999.90;;;3.00;99.90;;;;;;5074074;28;20405;-76
2022/01/25 09:39:20;;;;;;;1999.90;999.90;;;3.00;99.90;;;;;;5074376;28;20167;-76
2022/01/25 09:41:45;;;;;;;1999.90;999.90;;;2.90;99.90;;;;;;5074455;28;20425;-76
2022/01/25 09:44:11;;;;;;;1999.90;999.90;;;2.90;99.90;;;;;;5074163;28;20416;-76
2022/01/25 09:46:39;;;;;;;1999.90;999.90;;;2.90;99.90;;;;;;5074278;28;20570;-76
2022/01/25 09:49:05;;;;;;;1999.90;999.90;;;3.00;99.90;;;;;;5074397;28;20187;-76
2022/01/25 09:51:32;;;;;;;1999.90;999.90;;;3.00;99.90;;;;;;5074512;28;20606;-76
2022/01/25 09:53:58;;;;;;;1999.90;999.90;;;3.10;99.90;;;;;;5074269;28;20624;-76
2022/01/25 09:56:24;;;;;;;1999.90;999.90;;;3.10;99.90;;;;;;5074114;28;20179;-76
2022/01/25 09:58:51;;;;;;;1999.90;999.90;;;3.10;99.90;;;;;;5074271;28;20237;-76
2022/01/25 10:01:28;;;;;;;1999.90;999.90;;;3.10;99.90;;;;;;5074007;28;20557;-76
2022/01/25 10:03:54;;;;;;;1999.90;999.90;;;3.10;99.90;;;;;;5074089;28;20630;-76
2022/01/25 10:06:21;;;;;;;1999.90;999.90;;;3.10;99.90;;;;;;5073895;28;20277;-76
2022/01/25 10:08:52;;;;;;;1999.90;999.90;;;3.10;99.90;;;;;;5074022;28;20405;-73
2022/01/25 10:11:21;;;;;;;1999.90;999.90;;;3.20;99.90;;;;;;5113077;22;20206;-73
2022/01/25 10:13:50;;;;;;;1999.90;999.90;;;3.10;99.90;;;;;;5072547;28;20199;-74
2022/01/25 10:16:29;;;;;;;1999.90;999.90;;;3.10;99.90;;;;;;5073667;28;20528;-73
2022/01/25 10:19:00;;;;;;;1999.90;999.90;;;3.20;99.90;;;;;;5074154;28;20174;-73
2022/01/25 10:21:40;;;;;;;1999.90;999.90;;;3.20;99.90;;;;;;5073764;28;20652;-73
2022/01/25 10:24:10;;;;;;;1999.90;999.90;;;3.20;99.90;;;;;;5073692;28;20225;-74
2022/01/25 10:26:42;;;;;;;1999.90;999.90;;;3.20;99.90;;;;;;5073789;28;20199;-74
2022/01/25 10:29:10;;;;;;;1999.90;999.90;;;3.30;99.90;;;;;;5073600;28;20165;-75
2022/01/25 10:31:52;;;;;;;1999.90;999.90;;;3.40;99.90;;;;;;5073492;28;20187;-75
2022/01/25 10:34:33;;;;;;;1999.90;999.90;;;3.40;99.90;;;;;;5073220;28;20179;-74
2022/01/25 10:37:00;;;;;;;1999.90;999.90;;;3.50;99.90;;;;;;5073500;28;20171;-75
2022/01/25 10:39:28;;;;;;;1999.90;999.90;;;3.50;99.90;;;;;;5073463;28;20174;-75
2022/01/25 10:42:06;;;;;;;1999.90;999.90;;;3.50;99.90;;;;;;5073318;28;20210;-74
2022/01/25 10:45:04;;;;;;;1999.90;999.90;;;3.50;99.90;;;;;;5072990;28;20163;-75
2022/01/25 10:47:42;;;;;;;1999.90;999.90;;;3.60;99.90;;;;;;5028642;28;20305;-74
2022/01/25 10:50:15;;;;;;;1999.90;999.90;;;3.70;99.90;;;;;;5073158;28;20208;-75
2022/01/25 10:52:41;;;;;;;1999.90;999.90;;;3.80;99.90;;;;;;5073619;28;20190;-73
2022/01/25 10:55:07;;;;;;;1999.90;999.90;;;3.70;99.90;;;;;;5072950;28;20173;-75
2022/01/25 10:57:33;;;;;;;1999.90;999.90;;;3.70;99.90;;;;;;5073019;28;20412;-76
2022/01/25 11:00:01;;;;;;;1999.90;999.90;;;3.60;99.90;;;;;;5073006;28;20171;-75
2022/01/25 11:02:27;;;;;;;1999.90;999.90;;;3.50;99.90;;;;;;5072923;28;20187;-75
2022/01/25 11:05:06;;;;;;;1999.90;999.90;;;3.50;99.90;;;;;;5072795;28;20429;-75
2022/01/25 11:07:46;;;;;;;1999.90;999.90;;;3.60;99.90;;;;;;5072720;28;20621;-74
2022/01/25 11:10:17;;;;;;;1999.90;999.90;;;3.60;99.90;;;;;;5073055;28;20253;-74
2022/01/25 11:12:58;;;;;;;1999.90;999.90;;;3.70;99.90;;;;;;5072709;28;20600;-74
2022/01/25 11:15:24;;;;;;;1999.90;999.90;;;3.80;99.90;;;;;;5072586;28;20171;-74
2022/01/25 11:17:49;;;;;;;1999.90;999.90;;;3.80;99.90;;;;;;5072948;28;20178;-74
2022/01/25 11:20:15;;;;;;;1999.90;999.90;;;3.90;99.90;;;;;;5072645;28;20202;-74
2022/01/25 11:22:41;;;;;;;1999.90;999.90;;;3.90;99.90;;;;;;5072611;28;20671;-74
2022/01/25 11:25:07;;;;;;;1999.90;999.90;;;3.90;99.90;;;;;;5072305;28;20652;-74
2022/01/25 11:27:33;;;;;;;1999.90;999.90;;;4.00;99.90;;;;;;5072561;28;20237;-74
2022/01/25 11:30:09;;;;;;;1999.90;999.90;;;4.10;99.90;;;;;;5072510;28;20408;-74
2022/01/25 11:32:40;;;;;;;1999.90;999.90;;;4.10;99.90;;;;;;5072516;28;20201;-74
2022/01/25 11:35:10;;;;;;;1999.90;999.90;;;4.10;99.90;;;;;;5072161;28;20163;-74
2022/01/25 11:37:39;;;;;;;1999.90;999.90;;;4.10;99.90;;;;;;5067142;28;20405;-75
2022/01/25 11:40:30;;;;;;;1999.90;999.90;;;4.10;99.90;;;;;;5071251;28;20540;-71
2022/01/25 11:42:58;;;;;;;1999.90;999.90;;;4.20;99.90;;;;;;5058146;28;20207;-72
2022/01/25 11:45:30;;;;;;;1999.90;999.90;;;4.30;99.90;;;;;;5073583;28;20178;-73
2022/01/25 11:47:57;;;;;;;1999.90;999.90;;;4.40;99.90;;;;;;5072747;28;20501;-74
2022/01/25 11:50:31;;;;;;;1999.90;999.90;;;4.50;99.90;;;;;;5056461;28;20413;-73
2022/01/25 11:53:05;;;;;;;1999.90;999.90;;;4.50;99.90;;;;;;5072782;28;20432;-73
2022/01/25 11:55:54;;;;;;;1999.90;999.90;;;4.40;99.90;;;;;;5073295;28;20194;-72
2022/01/25 11:58:28;;;;;;;1999.90;999.90;;;4.30;99.90;;;;;;5064152;28;20176;-72
2022/01/25 12:01:00;;;;;;;1999.90;999.90;;;4.30;99.90;;;;;;5057502;28;20178;-76
2022/01/25 12:03:31;;;;;;;1999.90;999.90;;;4.40;99.90;;;;;;5069180;28;20252;-75
2022/01/25 12:06:10;;;;;;;1999.90;999.90;;;4.30;99.90;;;;;;5070961;28;20414;-74
2022/01/25 12:11:37;;;;;;;1999.90;999.90;;;4.40;99.90;;;;;;5066386;28;20202;-75
2022/01/25 12:14:25;;;;;;;1999.90;999.90;;;4.40;99.90;;;;;;5071018;28;20174;-76
2022/01/25 12:17:05;;;;;;;1999.90;999.90;;;4.30;99.90;;;;;;5067851;28;20438;-75
2022/01/25 12:19:30;;;;;;;1999.90;999.90;;;4.30;99.90;;;;;;5071478;28;20401;-75
2022/01/25 12:22:08;;;;;;;1999.90;999.90;;;4.30;99.90;;;;;;5070939;28;20514;-74
2022/01/25 12:24:39;;;;;;;1999.90;999.90;;;4.50;99.90;;;;;;5071105;28;20151;-75
2022/01/25 12:27:22;;;;;;;1999.90;999.90;;;4.60;99.90;;;;;;5071122;28;20432;-73
2022/01/25 12:30:17;;;;;;;1999.90;999.90;;;4.60;99.90;;;;;;5070713;28;20447;-74
2022/01/25 12:33:02;;;;;;;1999.90;999.90;;;4.70;99.90;;;;;;5068521;28;20191;-73
2022/01/25 12:35:49;;;;;;;1999.90;999.90;;;4.60;99.90;;;;;;5065208;28;20407;-75
2022/01/25 12:38:21;;;;;;;1999.90;999.90;;;4.60;99.90;;;;;;5070715;28;20348;-75
2022/01/25 12:40:53;;;;;;;1999.90;999.90;;;4.40;99.90;;;;;;5071178;28;20773;-75
2022/01/25 12:43:29;;;;;;;1999.90;999.90;;;4.40;99.90;;;;;;5070983;28;20425;-76
2022/01/25 12:45:59;;;;;;;1999.90;999.90;;;4.50;99.90;;;;;;5070312;28;20589;-75
2022/01/25 12:48:51;;;;;;;1999.90;999.90;;;4.60;99.90;;;;;;5071361;28;20446;-75
2022/01/25 12:51:25;;;;;;;1999.90;999.90;;;4.70;99.90;;;;;;5059432;28;20417;-75
2022/01/25 12:53:53;;;;;;;1999.90;999.90;;;4.80;99.90;;;;;;5071170;28;20412;-75
2022/01/25 12:56:32;;;;;;;1999.90;999.90;;;4.90;99.90;;;;;;5070745;28;20781;-75
2022/01/25 12:59:10;;;;;;;1999.90;999.90;;;5.00;99.90;;;;;;5070552;28;20386;-74
2022/01/25 13:01:38;;;;;;;1999.90;999.90;;;5.10;99.90;;;;;;5071026;28;20416;-75
2022/01/25 13:04:05;;;;;;;1999.90;999.90;;;5.10;99.90;;;;;;5070635;28;20423;-75
2022/01/25 13:06:40;;;;;;;1999.90;999.90;;;5.00;99.90;;;;;;5062452;28;20545;-75
2022/01/25 13:09:15;;;;;;;1999.90;999.90;;;5.10;99.90;;;;;;5073024;28;20432;-75
2022/01/25 13:17:02;;;;;;;1999.90;999.90;;;5.20;99.90;;;;;;5074389;28;20397;-74
2022/01/25 13:19:44;;;;;;;1999.90;999.90;;;5.30;99.90;;;;;;5074519;28;20377;-75
2022/01/25 13:22:19;;;;;;;1999.90;999.90;;;5.40;99.90;;;;;;5074037;28;20417;-75
2022/01/25 13:25:08;;;;;;;1999.90;999.90;;;5.30;99.90;;;;;;5074301;28;20932;-74
2022/01/25 13:27:46;;;;;;;1999.90;999.90;;;5.30;99.90;;;;;;5074147;28;20433;-73
2022/01/25 13:32:57;;;;;;;1999.90;999.90;;;5.20;99.90;;;;;;5074593;28;20960;-73
2022/01/25 13:35:28;;;;;;;1999.90;999.90;;;5.10;99.90;;;;;;5074094;28;20401;-73
2022/01/25 13:38:08;;;;;;;1999.90;999.90;;;5.10;99.90;;;;;;5073704;28;20406;-73
2022/01/25 13:41:02;;;;;;;1999.90;999.90;;;5.10;99.90;;;;;;5074192;28;20405;-73
2022/01/25 13:46:14;;;;;;;1999.90;999.90;;;5.00;99.90;;;;;;5073432;28;20175;-73
2022/01/25 13:48:40;;;;;;;1999.90;999.90;;;4.90;99.90;;;;;;5074145;28;20440;-73
2022/01/25 13:51:12;;;;;;;1999.90;999.90;;;4.90;99.90;;;;;;5073424;28;20413;-73
2022/01/25 13:53:39;;;;;;;1999.90;999.90;;;4.80;99.90;;;;;;5073663;28;20413;-73
2022/01/25 13:56:15;;;;;;;1999.90;999.90;;;4.70;99.90;;;;;;5073349;28;20185;-73
2022/01/25 13:58:45;;;;;;;1999.90;999.90;;;4.80;99.90;;;;;;5073481;28;20467;-73
2022/01/25 14:01:13;;;;;;;1999.90;999.90;;;4.80;99.90;;;;;;5073738;28;20417;-74
2022/01/25 14:03:45;;;;;;;1999.90;999.90;;;4.80;99.90;;;;;;5073639;28;20445;-74
2022/01/25 14:06:43;;;;;;;1999.90;999.90;;;4.80;99.90;;;;;;5072970;28;20163;-73
2022/01/25 14:09:16;;;;;;;1999.90;999.90;;;4.80;99.90;;;;;;5073434;28;20171;-73